ENRA/MQN METAR and TAF weather

Enter ICAO airport designator
Station Type Date Time Source
ENRA METAR 2018/12/12 16:50 UTC NOAA

ENRA 121650Z 14003KT CAVOK M12/M14 Q1033


Station Type Date Time Source
ENRA Decoded METAR 2018/12/12 16:50 UTC NOAA

Mo I Rana / Rossvoll, Norway (ENRA) 66-22N 014-18E 70M
Dec 12, 2018 - 11:50 AM EST / 2018.12.12 1650 UTC
Wind: from the SE (140 degrees) at 3 MPH (3 KT):0
Visibility: greater than 7 mile(s):0
Temperature: 10 F (-12 C)
Dew Point: 6 F (-14 C)
Relative Humidity: 85%
Pressure (altimeter): 30.50 in. Hg (1033 hPa)
ob: ENRA 121650Z 14003KT CAVOK M12/M14 Q1033
cycle: 17

Station Type Date Time Source
ENRA TAF UTC NOAA

Error!


Example: see airport list